createdAt,value
2022-11-05T00:01:40.302Z,19.37
2022-11-05T00:04:30.726Z,21.50
2022-11-05T00:07:18.875Z,18.10
2022-11-05T00:09:46.688Z,18.80
2022-11-05T00:12:33.268Z,23.67
2022-11-05T00:15:19.198Z,21.67
2022-11-05T00:17:46.235Z,21.00
2022-11-05T00:20:13.729Z,20.43
2022-11-05T00:22:59.628Z,24.77
2022-11-05T00:25:27.952Z,21.77
2022-11-05T00:27:55.117Z,24.23
2022-11-05T00:30:26.124Z,23.27
2022-11-05T00:32:53.523Z,23.43
2022-11-05T00:35:22.326Z,22.43
2022-11-05T00:37:50.554Z,23.43
2022-11-05T00:40:18.057Z,19.13
2022-11-05T00:43:04.436Z,26.70
2022-11-05T00:45:31.950Z,23.40
2022-11-05T00:48:17.776Z,21.70
2022-11-05T00:50:44.879Z,20.17
2022-11-05T00:53:12.165Z,19.97
2022-11-05T00:55:41.066Z,22.57
2022-11-05T00:58:09.286Z,19.97
2022-11-05T01:00:38.510Z,22.53
2022-11-05T01:03:07.695Z,23.30
2022-11-05T01:05:35.555Z,25.57
2022-11-05T01:08:02.705Z,21.83
2022-11-05T01:10:30.013Z,23.37
2022-11-05T01:12:57.355Z,26.23
2022-11-05T01:15:24.444Z,23.50
2022-11-05T01:17:52.280Z,22.47
2022-11-05T01:20:19.400Z,20.87
2022-11-05T01:22:46.431Z,18.17
2022-11-05T01:25:13.508Z,20.80
2022-11-05T01:27:40.650Z,22.33
2022-11-05T01:30:08.633Z,22.27
2022-11-05T01:32:36.375Z,23.07
2022-11-05T01:35:04.383Z,19.67
2022-11-05T01:37:31.508Z,20.70
2022-11-05T01:39:58.600Z,22.20
2022-11-05T01:42:26.724Z,20.07
2022-11-05T01:44:56.882Z,21.97
2022-11-05T01:47:28.653Z,22.03
2022-11-05T01:49:56.017Z,19.43
2022-11-05T01:52:23.273Z,26.60
2022-11-05T01:54:50.476Z,21.63
2022-11-05T01:57:17.667Z,23.60
2022-11-05T01:59:47.491Z,21.70
2022-11-05T02:02:14.902Z,22.97
2022-11-05T02:04:44.348Z,22.80
2022-11-05T02:07:11.787Z,24.00
2022-11-05T02:09:48.839Z,22.80
2022-11-05T02:12:16.111Z,21.87
2022-11-05T02:14:43.148Z,23.83
2022-11-05T02:17:18.336Z,22.07
2022-11-05T02:19:48.148Z,24.70
2022-11-05T02:22:35.489Z,23.87
2022-11-05T02:25:21.031Z,24.83
2022-11-05T02:27:51.097Z,25.90
2022-11-05T02:30:27.123Z,24.60
2022-11-05T02:32:57.251Z,24.43
2022-11-05T02:35:33.300Z,25.27
2022-11-05T02:38:06.279Z,25.33
2022-11-05T02:40:36.367Z,24.97
2022-11-05T02:43:26.258Z,24.53
2022-11-05T02:46:01.787Z,24.37
2022-11-05T02:48:55.749Z,22.40
2022-11-05T02:51:37.874Z,19.40
2022-11-05T02:54:22.978Z,23.47
2022-11-05T02:56:52.213Z,24.53
2022-11-05T02:59:19.268Z,28.50
2022-11-05T03:01:47.504Z,24.10
2022-11-05T03:04:16.102Z,25.60
2022-11-05T03:06:56.525Z,29.27
2022-11-05T03:09:32.695Z,26.53
2022-11-05T03:12:06.173Z,21.97
2022-11-05T03:14:33.201Z,28.03
2022-11-05T03:17:09.567Z,22.13
2022-11-05T03:19:40.789Z,24.13
2022-11-05T03:22:13.046Z,26.43
2022-11-05T03:24:43.648Z,23.13
2022-11-05T03:27:12.546Z,21.87
2022-11-05T03:29:51.331Z,24.83
2022-11-05T03:32:20.596Z,22.93
2022-11-05T03:34:48.911Z,22.20
2022-11-05T03:37:18.819Z,22.90
2022-11-05T03:39:54.206Z,22.20
2022-11-05T03:42:25.746Z,25.03
2022-11-05T03:44:55.066Z,27.33
2022-11-05T03:47:24.571Z,25.37
2022-11-05T03:49:55.841Z,22.00
2022-11-05T03:52:25.185Z,25.67
2022-11-05T03:54:52.436Z,22.90
2022-11-05T03:57:19.494Z,26.93
2022-11-05T03:59:48.486Z,26.60
2022-11-05T04:02:16.712Z,25.70
2022-11-05T04:04:43.879Z,23.67
2022-11-05T04:07:30.496Z,23.40
2022-11-05T04:10:16.515Z,21.80
2022-11-05T04:13:02.457Z,26.73
2022-11-05T04:15:55.651Z,22.57
2022-11-05T04:18:23.002Z,23.87
2022-11-05T04:21:08.780Z,25.10
2022-11-05T04:23:54.859Z,22.00
2022-11-05T04:26:23.315Z,23.10
2022-11-05T04:29:09.679Z,23.93
2022-11-05T04:31:36.798Z,23.47
2022-11-05T04:37:26.403Z,26.00
2022-11-05T04:39:53.457Z,26.63
2022-11-05T04:42:20.600Z,27.20
2022-11-05T04:44:47.761Z,30.43
2022-11-05T04:47:14.847Z,26.13
2022-11-05T04:49:41.984Z,28.33
2022-11-05T04:52:09.426Z,27.97
2022-11-05T04:54:36.576Z,28.43
2022-11-05T04:57:03.660Z,23.37
2022-11-05T04:59:30.722Z,27.30
2022-11-05T05:01:57.895Z,24.97
2022-11-05T05:04:25.060Z,27.73
2022-11-05T05:06:52.112Z,27.43
2022-11-05T05:09:19.193Z,28.80
2022-11-05T05:11:46.292Z,35.67
2022-11-05T05:14:13.379Z,30.77
2022-11-05T05:16:40.487Z,25.37
2022-11-05T05:19:07.605Z,32.93
2022-11-05T05:21:41.437Z,31.57
2022-11-05T05:24:11.565Z,31.70
2022-11-05T05:26:39.705Z,30.53
2022-11-05T05:29:07.283Z,36.83
2022-11-05T05:31:34.789Z,31.50
2022-11-05T05:34:01.939Z,35.30
2022-11-05T05:36:28.992Z,32.40
2022-11-05T05:38:56.144Z,35.77
2022-11-05T05:41:23.254Z,33.50
2022-11-05T05:43:50.420Z,33.20
2022-11-05T05:46:19.407Z,30.17
2022-11-05T05:48:49.401Z,33.73
2022-11-05T05:51:16.542Z,31.73
2022-11-05T05:53:43.642Z,33.90
2022-11-05T05:56:10.964Z,32.40
2022-11-05T05:58:38.945Z,33.63
2022-11-05T06:01:07.927Z,37.03
2022-11-05T06:03:35.129Z,36.27
2022-11-05T06:06:05.924Z,37.67
2022-11-05T06:08:33.603Z,35.77
2022-11-05T06:11:01.289Z,38.60
2022-11-05T06:13:28.682Z,44.30
2022-11-05T06:16:01.372Z,40.27
2022-11-05T06:18:28.792Z,48.27
2022-11-05T06:20:56.086Z,43.87
2022-11-05T06:23:23.152Z,45.03
2022-11-05T06:25:50.224Z,39.33
2022-11-05T06:28:17.302Z,46.27
2022-11-05T06:30:44.401Z,42.70
2022-11-05T06:33:11.668Z,44.80
2022-11-05T06:35:39.001Z,48.03
2022-11-05T06:38:06.121Z,43.27
2022-11-05T06:40:33.208Z,38.27
2022-11-05T06:43:00.315Z,40.43
2022-11-05T06:45:27.415Z,42.30
2022-11-05T06:47:57.952Z,41.40
2022-11-05T06:50:25.440Z,38.10
2022-11-05T06:52:59.298Z,38.97
2022-11-05T06:55:27.939Z,39.03
2022-11-05T06:57:55.253Z,36.77
2022-11-05T07:00:22.803Z,41.40
2022-11-05T07:02:50.108Z,39.00
2022-11-05T07:05:17.573Z,37.87
2022-11-05T07:07:45.667Z,46.23
2022-11-05T07:10:13.932Z,44.50
2022-11-05T07:12:41.150Z,37.83
2022-11-05T07:15:08.639Z,33.77
2022-11-05T07:17:35.810Z,34.17
2022-11-05T07:20:03.813Z,29.47
2022-11-05T07:22:30.927Z,30.33
2022-11-05T07:24:58.045Z,32.33
2022-11-05T07:27:25.169Z,27.90
2022-11-05T07:29:52.231Z,27.17
2022-11-05T07:32:19.309Z,28.90
2022-11-05T07:34:46.411Z,28.47
2022-11-05T07:37:13.565Z,32.63
2022-11-05T07:39:40.662Z,41.50
2022-11-05T07:42:07.726Z,36.97
2022-11-05T07:44:34.942Z,36.63
2022-11-05T07:47:02.045Z,39.53
2022-11-05T07:49:29.183Z,32.90
2022-11-05T07:51:56.291Z,30.83
2022-11-05T07:54:26.410Z,32.50
2022-11-05T07:56:53.478Z,31.33
2022-11-05T07:59:20.621Z,34.33
2022-11-05T08:01:47.937Z,30.67
2022-11-05T08:04:15.279Z,32.47
2022-11-05T08:06:42.458Z,24.77
2022-11-05T08:09:10.089Z,31.27
2022-11-05T08:11:37.197Z,27.23
2022-11-05T08:14:04.390Z,25.60
2022-11-05T08:16:31.762Z,26.43
2022-11-05T08:18:58.905Z,28.07
2022-11-05T08:21:25.962Z,25.47
2022-11-05T08:23:53.037Z,28.50
2022-11-05T08:26:20.570Z,27.63
2022-11-05T08:28:47.668Z,27.83
2022-11-05T08:31:15.961Z,25.30
2022-11-05T08:33:43.066Z,27.03
2022-11-05T08:36:10.224Z,28.30
2022-11-05T08:38:37.343Z,28.50
2022-11-05T08:41:04.888Z,24.10
2022-11-05T08:43:32.035Z,24.67
2022-11-05T08:46:00.600Z,29.90
2022-11-05T08:48:27.781Z,26.77
2022-11-05T08:50:54.903Z,26.50
2022-11-05T08:53:22.049Z,26.87
2022-11-05T08:55:51.077Z,28.50
2022-11-05T08:58:19.637Z,24.17
2022-11-05T09:00:48.607Z,22.07
2022-11-05T09:03:16.126Z,22.23
2022-11-05T09:05:43.562Z,23.60
2022-11-05T09:08:12.235Z,22.03
2022-11-05T09:10:40.093Z,17.57
2022-11-05T09:13:09.642Z,21.23
2022-11-05T09:15:41.080Z,18.97
2022-11-05T09:18:08.166Z,17.63
2022-11-05T09:20:36.665Z,20.17
2022-11-05T09:23:03.830Z,19.00
2022-11-05T09:25:31.049Z,18.63
2022-11-05T09:28:16.205Z,18.07
2022-11-05T09:30:45.142Z,17.03
2022-11-05T09:33:12.588Z,21.47
2022-11-05T09:35:40.300Z,17.67
2022-11-05T09:38:07.676Z,19.80
2022-11-05T09:40:38.401Z,17.03
2022-11-05T09:43:06.226Z,17.30
2022-11-05T09:45:34.826Z,16.67
2022-11-05T09:48:04.771Z,15.53
2022-11-05T09:50:37.213Z,19.03
2022-11-05T09:53:05.087Z,18.70
2022-11-05T09:55:40.414Z,14.37
2022-11-05T09:58:15.363Z,15.80
2022-11-05T10:00:42.807Z,20.43
2022-11-05T10:03:15.963Z,18.60
2022-11-05T10:05:43.596Z,19.60
2022-11-05T10:08:18.711Z,13.70
2022-11-05T10:10:48.354Z,19.30
2022-11-05T10:13:24.139Z,15.60
2022-11-05T10:16:07.624Z,13.40
2022-11-05T10:18:36.984Z,15.27
2022-11-05T10:21:04.293Z,14.70
2022-11-05T10:23:31.474Z,16.20
2022-11-05T10:26:02.311Z,18.37
2022-11-05T10:28:32.234Z,17.93
2022-11-05T10:31:00.652Z,19.53
2022-11-05T10:33:57.255Z,16.27
2022-11-05T10:36:26.055Z,16.07
2022-11-05T10:38:54.284Z,18.80
2022-11-05T10:41:21.385Z,16.23
2022-11-05T10:43:50.162Z,16.57
2022-11-05T10:46:32.575Z,18.17
2022-11-05T10:49:18.861Z,16.70
2022-11-05T10:51:47.267Z,19.13
2022-11-05T10:54:18.045Z,19.17
2022-11-05T10:56:45.155Z,18.33
2022-11-05T10:59:25.552Z,16.83
2022-11-05T11:02:03.960Z,13.77
2022-11-05T11:04:37.423Z,14.90
2022-11-05T11:07:04.963Z,12.53
2022-11-05T11:09:36.326Z,12.13
2022-11-05T11:12:08.443Z,13.07
2022-11-05T11:14:35.562Z,12.30
2022-11-05T11:17:24.504Z,12.23
2022-11-05T11:19:53.475Z,12.70
2022-11-05T11:22:21.681Z,9.80
2022-11-05T11:24:50.334Z,19.37
2022-11-05T11:27:31.657Z,16.10
2022-11-05T11:30:02.781Z,14.17
2022-11-05T11:32:34.924Z,11.93
2022-11-05T11:35:03.464Z,15.10
2022-11-05T11:37:42.118Z,14.53
2022-11-05T11:40:18.264Z,12.67
2022-11-05T11:42:49.539Z,13.93
2022-11-05T11:45:36.877Z,13.00
2022-11-05T11:48:07.761Z,12.13
2022-11-05T11:50:38.022Z,14.13
2022-11-05T11:53:16.865Z,14.67
2022-11-05T11:55:56.460Z,16.20
2022-11-05T11:58:25.600Z,14.13
2022-11-05T12:00:56.819Z,9.90
2022-11-05T12:03:24.318Z,12.23
2022-11-05T12:05:51.472Z,14.77
2022-11-05T12:08:23.858Z,14.67
2022-11-05T12:11:00.018Z,12.07
2022-11-05T12:13:49.834Z,10.10
2022-11-05T12:16:32.155Z,12.97
2022-11-05T12:19:05.493Z,8.70
2022-11-05T12:21:51.853Z,8.07
2022-11-05T12:24:35.286Z,5.27
2022-11-05T12:27:21.098Z,5.63
2022-11-05T12:29:48.310Z,5.53
2022-11-05T12:32:24.496Z,7.43
2022-11-05T12:34:57.339Z,8.97
2022-11-05T12:37:24.378Z,9.33
2022-11-05T12:39:54.604Z,9.47
2022-11-05T12:42:21.648Z,10.63
2022-11-05T12:44:51.812Z,9.77
2022-11-05T12:47:37.588Z,10.93
2022-11-05T12:50:15.284Z,12.97
2022-11-05T12:52:45.537Z,10.57
2022-11-05T12:55:23.912Z,11.83
2022-11-05T12:57:53.556Z,10.77
2022-11-05T13:00:22.049Z,15.80
2022-11-05T13:02:54.588Z,11.53
2022-11-05T13:05:24.543Z,10.20
2022-11-05T13:08:00.289Z,12.83
2022-11-05T13:10:30.394Z,11.20
2022-11-05T13:13:10.235Z,12.47
2022-11-05T13:15:41.993Z,12.10
2022-11-05T13:18:18.478Z,11.83
2022-11-05T13:20:49.821Z,13.20
2022-11-05T13:23:44.803Z,14.03
2022-11-05T13:26:18.599Z,12.27
2022-11-05T13:28:49.882Z,14.03
2022-11-05T13:31:20.354Z,12.83
2022-11-05T13:33:49.283Z,17.17
2022-11-05T13:36:38.624Z,15.43
2022-11-05T13:39:21.244Z,21.17
2022-11-05T13:41:51.314Z,13.37
2022-11-05T13:44:21.397Z,15.57
2022-11-05T13:46:48.448Z,15.30
2022-11-05T13:49:21.284Z,18.10
2022-11-05T13:52:07.004Z,15.33
2022-11-05T13:54:34.075Z,18.67
2022-11-05T13:57:19.686Z,16.77
2022-11-05T13:59:58.996Z,14.60
2022-11-05T14:02:28.879Z,11.97
2022-11-05T14:05:01.073Z,14.23
2022-11-05T14:07:31.065Z,13.60
2022-11-05T14:09:59.862Z,16.93
2022-11-05T14:12:26.974Z,12.97
2022-11-05T14:14:59.150Z,11.50
2022-11-05T14:17:27.931Z,13.53
2022-11-05T14:20:06.777Z,12.27
2022-11-05T14:22:33.890Z,15.03
2022-11-05T14:25:02.093Z,13.83
2022-11-05T14:27:29.139Z,18.43
2022-11-05T14:29:56.316Z,17.47
2022-11-05T14:32:23.731Z,14.10
2022-11-05T14:35:04.085Z,16.73
2022-11-05T14:37:40.226Z,16.63
2022-11-05T14:40:22.578Z,14.67
2022-11-05T14:42:51.066Z,16.03
2022-11-05T14:45:18.265Z,14.70
2022-11-05T14:47:52.257Z,14.00
2022-11-05T14:50:39.688Z,14.77
2022-11-05T14:53:25.525Z,14.60
2022-11-05T14:56:01.093Z,14.37
2022-11-05T14:58:35.793Z,11.73
2022-11-05T15:01:08.228Z,13.23
2022-11-05T15:03:46.373Z,17.67
2022-11-05T15:06:29.777Z,15.27
2022-11-05T15:09:15.309Z,19.23
2022-11-05T15:11:52.991Z,20.00
2022-11-05T15:14:34.529Z,17.63
2022-11-05T15:17:30.741Z,17.53
2022-11-05T15:20:07.372Z,16.37
2022-11-05T15:22:36.397Z,16.53
2022-11-05T15:25:04.512Z,15.60
2022-11-05T15:27:41.163Z,19.13
2022-11-05T15:30:21.609Z,17.83
2022-11-05T15:32:48.922Z,19.83
2022-11-05T15:35:19.156Z,21.80
2022-11-05T15:37:54.599Z,16.80
2022-11-05T15:40:27.990Z,19.13
2022-11-05T15:43:14.211Z,19.37
2022-11-05T15:45:41.613Z,23.57
2022-11-05T15:48:15.810Z,22.43
2022-11-05T15:50:43.004Z,22.20
2022-11-05T15:53:44.279Z,21.83
2022-11-05T15:56:13.422Z,20.33
2022-11-05T15:58:48.041Z,22.03
2022-11-05T16:01:28.028Z,19.97
2022-11-05T16:03:56.698Z,17.00
2022-11-05T16:06:29.694Z,18.00
2022-11-05T16:08:56.804Z,19.47
2022-11-05T16:11:25.672Z,21.87
2022-11-05T16:13:53.380Z,22.47
2022-11-05T16:16:21.093Z,21.40
2022-11-05T16:18:48.216Z,23.40
2022-11-05T16:21:19.542Z,22.53
2022-11-05T16:23:49.686Z,20.97
2022-11-05T16:27:00.078Z,23.00
2022-11-05T16:29:18.213Z,24.23
2022-11-05T16:31:51.850Z,22.13
2022-11-05T16:34:26.170Z,22.27
2022-11-05T16:36:54.892Z,21.67
2022-11-05T16:39:22.108Z,25.57
2022-11-05T16:41:49.363Z,22.77
2022-11-05T16:44:16.454Z,25.30
2022-11-05T16:46:45.909Z,22.10
2022-11-05T16:49:13.055Z,24.00
2022-11-05T16:51:40.143Z,23.43
2022-11-05T16:54:07.306Z,27.77
2022-11-05T16:56:34.837Z,24.53
2022-11-05T16:59:02.756Z,24.10
2022-11-05T17:01:29.943Z,21.97
2022-11-05T17:03:57.159Z,27.47
2022-11-05T17:06:24.246Z,26.67
2022-11-05T17:08:51.293Z,25.10
2022-11-05T17:11:22.021Z,24.67
2022-11-05T17:13:49.538Z,24.20
2022-11-05T17:16:17.507Z,25.90
2022-11-05T17:18:44.968Z,26.13
2022-11-05T17:21:14.039Z,28.63
2022-11-05T17:23:41.159Z,33.57
2022-11-05T17:26:12.273Z,28.80
2022-11-05T17:28:40.500Z,31.67
2022-11-05T17:31:08.844Z,25.47
2022-11-05T17:33:36.048Z,27.17
2022-11-05T17:36:10.147Z,32.87
2022-11-05T17:38:37.280Z,29.77
2022-11-05T17:41:11.629Z,28.50
2022-11-05T17:43:38.729Z,27.27
2022-11-05T17:46:09.851Z,27.33
2022-11-05T17:48:37.727Z,26.13
2022-11-05T17:51:05.124Z,23.20
2022-11-05T17:53:32.234Z,24.63
2022-11-05T17:55:59.382Z,27.70
2022-11-05T17:58:26.439Z,26.00
2022-11-05T18:00:53.542Z,26.30
2022-11-05T18:03:20.693Z,31.07
2022-11-05T18:05:47.743Z,30.93
2022-11-05T18:08:14.852Z,33.07
2022-11-05T18:10:41.959Z,30.30
2022-11-05T18:13:09.438Z,29.67
2022-11-05T18:15:40.880Z,26.07
2022-11-05T18:18:08.418Z,29.70
2022-11-05T18:20:35.576Z,25.97
2022-11-05T18:23:02.682Z,27.00
2022-11-05T18:25:29.852Z,29.13
2022-11-05T18:27:56.975Z,22.17
2022-11-05T18:30:24.073Z,24.93
2022-11-05T18:32:51.257Z,26.13
2022-11-05T18:35:18.421Z,26.07
2022-11-05T18:37:45.554Z,28.00
2022-11-05T18:40:12.745Z,24.23
2022-11-05T18:42:40.347Z,27.43
2022-11-05T18:45:08.059Z,22.43
2022-11-05T18:47:35.223Z,28.03
2022-11-05T18:50:02.752Z,26.13
2022-11-05T18:52:31.823Z,25.67
2022-11-05T18:54:59.462Z,25.93
2022-11-05T18:57:26.686Z,27.77
2022-11-05T18:59:53.748Z,20.83
2022-11-05T19:02:20.988Z,25.63
2022-11-05T19:05:14.018Z,22.47
2022-11-05T19:07:38.790Z,26.93
2022-11-05T19:10:06.306Z,23.97
2022-11-05T19:12:33.385Z,23.97
2022-11-05T19:15:02.849Z,26.53
2022-11-05T19:17:30.780Z,22.57
2022-11-05T19:19:57.864Z,26.67
2022-11-05T19:22:25.977Z,20.50
2022-11-05T19:24:53.129Z,23.90
2022-11-05T19:27:20.363Z,28.27
2022-11-05T19:29:47.660Z,25.53
2022-11-05T19:32:14.796Z,23.00
2022-11-05T19:34:41.870Z,26.17
2022-11-05T19:37:09.023Z,32.87
2022-11-05T19:39:36.486Z,25.40
2022-11-05T19:42:04.640Z,28.43
2022-11-05T19:44:32.230Z,24.33
2022-11-05T19:46:59.424Z,27.07
2022-11-05T19:49:28.178Z,26.73
2022-11-05T19:51:55.265Z,25.90
2022-11-05T19:54:22.364Z,27.23
2022-11-05T19:56:51.378Z,27.87
2022-11-05T19:59:18.529Z,27.67
2022-11-05T20:01:45.747Z,30.40
2022-11-05T20:04:13.011Z,26.60
2022-11-05T20:06:40.755Z,31.87
2022-11-05T20:09:25.543Z,31.53
2022-11-05T20:11:56.624Z,28.63
2022-11-05T20:14:24.605Z,25.00
2022-11-05T20:16:52.111Z,25.93
2022-11-05T20:19:20.295Z,27.23
2022-11-05T20:21:47.850Z,32.17
2022-11-05T20:24:22.387Z,32.07
2022-11-05T20:26:51.692Z,31.07
2022-11-05T20:29:18.770Z,25.07
2022-11-05T20:31:45.885Z,28.40
2022-11-05T20:34:13.014Z,30.63
2022-11-05T20:36:41.243Z,32.73
2022-11-05T20:39:08.385Z,33.50
2022-11-05T20:41:35.479Z,30.67
2022-11-05T20:44:02.649Z,31.53
2022-11-05T20:46:29.932Z,32.33
2022-11-05T20:48:57.088Z,37.33
2022-11-05T20:51:25.308Z,29.77
2022-11-05T20:53:56.100Z,29.77
2022-11-05T20:56:30.576Z,27.03
2022-11-05T20:58:58.789Z,32.47
2022-11-05T21:01:27.453Z,31.90
2022-11-05T21:03:54.706Z,31.07
2022-11-05T21:06:22.024Z,30.63
2022-11-05T21:08:50.009Z,29.90
2022-11-05T21:11:17.659Z,30.47
2022-11-05T21:13:44.773Z,30.70
2022-11-05T21:16:17.710Z,28.20
2022-11-05T21:18:46.031Z,27.60
2022-11-05T21:21:15.764Z,33.50
2022-11-05T21:23:43.032Z,29.77
2022-11-05T21:26:13.081Z,32.77
2022-11-05T21:28:40.901Z,30.77
2022-11-05T21:31:08.780Z,30.73
2022-11-05T21:33:35.899Z,31.43
2022-11-05T21:36:10.987Z,28.47
2022-11-05T21:38:38.439Z,25.47
2022-11-05T21:41:05.735Z,30.17
2022-11-05T21:43:33.012Z,24.93
2022-11-05T21:46:04.047Z,23.97
2022-11-05T21:48:31.672Z,28.10
2022-11-05T21:51:17.582Z,24.20
2022-11-05T21:54:03.529Z,27.70
2022-11-05T21:56:49.385Z,25.07
2022-11-05T21:59:37.000Z,29.10
2022-11-05T22:02:04.307Z,30.23
2022-11-05T22:04:32.567Z,28.57
2022-11-05T22:06:59.704Z,31.17
2022-11-05T22:09:27.099Z,29.07
2022-11-05T22:11:54.319Z,27.30
2022-11-05T22:14:21.746Z,25.37
2022-11-05T22:16:48.895Z,25.40
2022-11-05T22:19:16.299Z,34.50
2022-11-05T22:21:43.353Z,29.03
2022-11-05T22:24:10.497Z,28.63
2022-11-05T22:26:38.242Z,27.07
2022-11-05T22:29:05.670Z,28.93
2022-11-05T22:31:36.187Z,31.63
2022-11-05T22:34:04.497Z,27.10
2022-11-05T22:36:31.853Z,27.67
2022-11-05T22:38:59.078Z,29.20
2022-11-05T22:41:26.182Z,29.20
2022-11-05T22:43:53.258Z,30.47
2022-11-05T22:46:21.779Z,27.30
2022-11-05T22:48:49.165Z,29.80
2022-11-05T22:51:18.378Z,35.50
2022-11-05T22:53:45.647Z,32.80
2022-11-05T22:56:13.964Z,32.10
2022-11-05T22:58:41.411Z,29.97
2022-11-05T23:01:09.265Z,38.00
2022-11-05T23:03:36.442Z,34.30
2022-11-05T23:06:04.865Z,34.43
2022-11-05T23:08:50.955Z,37.73
2022-11-05T23:11:38.696Z,39.37
2022-11-05T23:14:07.342Z,35.27
2022-11-05T23:16:53.479Z,34.23
2022-11-05T23:19:39.800Z,37.33
2022-11-05T23:22:30.148Z,34.23
2022-11-05T23:24:57.239Z,39.93
2022-11-05T23:27:24.403Z,35.33
2022-11-05T23:29:51.504Z,37.50
2022-11-05T23:32:24.366Z,38.80
2022-11-05T23:34:52.081Z,39.43
2022-11-05T23:37:37.920Z,40.33
2022-11-05T23:40:06.486Z,40.27
2022-11-05T23:42:52.517Z,40.17
2022-11-05T23:45:38.561Z,42.03
2022-11-05T23:48:18.505Z,36.57
2022-11-05T23:50:46.864Z,41.83
2022-11-05T23:53:14.191Z,40.80
2022-11-05T23:55:41.478Z,41.63
2022-11-05T23:58:08.934Z,39.13
